createdAt,value
2023-04-02T00:01:54.779Z,57.20
2023-04-02T00:04:25.263Z,57.20
2023-04-02T00:07:30.225Z,57.20
2023-04-02T00:09:57.997Z,57.20
2023-04-02T00:12:24.844Z,57.10
2023-04-02T00:14:54.559Z,57.20
2023-04-02T00:17:24.695Z,57.10
2023-04-02T00:19:53.434Z,57.10
2023-04-02T00:22:25.655Z,57.10
2023-04-02T00:24:54.867Z,57.00
2023-04-02T00:27:22.242Z,57.00
2023-04-02T00:29:52.115Z,57.00
2023-04-02T00:32:41.388Z,57.00
2023-04-02T00:35:22.864Z,57.00
2023-04-02T00:37:50.623Z,57.00
2023-04-02T00:40:19.945Z,57.00
2023-04-02T00:42:48.889Z,57.00
2023-04-02T00:45:22.862Z,57.00
2023-04-02T00:47:49.564Z,56.90
2023-04-02T00:50:38.911Z,56.90
2023-04-02T00:53:12.816Z,56.90
2023-04-02T00:55:41.846Z,56.80
2023-04-02T00:58:32.856Z,56.80
2023-04-02T01:01:00.822Z,56.70
2023-04-02T01:03:36.347Z,56.70
2023-04-02T01:06:10.846Z,56.70
2023-04-02T01:08:57.870Z,56.70
2023-04-02T01:11:45.345Z,56.70
2023-04-02T01:14:43.739Z,56.70
2023-04-02T01:17:31.889Z,56.70
2023-04-02T01:20:17.290Z,56.70
2023-04-02T01:23:05.745Z,56.70
2023-04-02T01:26:02.213Z,56.70
2023-04-02T01:28:53.395Z,56.70
2023-04-02T01:31:21.262Z,56.60
2023-04-02T01:33:48.133Z,56.60
2023-04-02T01:36:18.355Z,56.60
2023-04-02T01:39:19.311Z,56.60
2023-04-02T01:41:58.864Z,56.60
2023-04-02T01:44:33.128Z,56.60
2023-04-02T01:47:03.833Z,56.60
2023-04-02T01:49:30.841Z,56.60
2023-04-02T01:51:57.521Z,56.60
2023-04-02T01:54:25.769Z,56.60
2023-04-02T01:56:52.649Z,56.60
2023-04-02T01:59:22.463Z,56.60
2023-04-02T02:02:02.554Z,56.50
2023-04-02T02:04:29.749Z,56.50
2023-04-02T02:06:58.651Z,56.50
2023-04-02T02:09:28.023Z,56.50
2023-04-02T02:11:56.513Z,56.50
2023-04-02T02:14:27.424Z,56.50
2023-04-02T02:16:56.669Z,56.00
2023-04-02T02:19:35.608Z,56.50
2023-04-02T02:22:33.365Z,56.50
2023-04-02T02:25:04.994Z,56.50
2023-04-02T02:27:48.168Z,56.40
2023-04-02T02:30:20.172Z,56.40
2023-04-02T02:32:55.797Z,56.40
2023-04-02T02:35:39.168Z,56.40
2023-04-02T02:38:26.856Z,56.40
2023-04-02T02:40:58.516Z,56.40
2023-04-02T02:43:27.002Z,56.30
2023-04-02T02:45:55.476Z,56.40
2023-04-02T02:48:26.165Z,56.40
2023-04-02T02:50:55.514Z,56.30
2023-04-02T02:53:23.959Z,56.30
2023-04-02T02:55:56.333Z,56.30
2023-04-02T02:58:31.282Z,56.40
2023-04-02T03:00:58.763Z,56.30
2023-04-02T03:03:29.057Z,56.40
2023-04-02T03:06:05.236Z,55.80
2023-04-02T03:08:34.099Z,56.30
2023-04-02T03:11:19.664Z,56.30
2023-04-02T03:13:50.694Z,56.30
2023-04-02T03:16:22.895Z,56.40
2023-04-02T03:18:52.577Z,56.30
2023-04-02T03:21:42.029Z,56.30
2023-04-02T03:24:29.506Z,56.30
2023-04-02T03:27:02.312Z,56.30
2023-04-02T03:29:35.317Z,56.30
2023-04-02T03:32:20.892Z,56.30
2023-04-02T03:34:59.524Z,56.30
2023-04-02T03:37:42.298Z,55.80
2023-04-02T03:40:15.791Z,56.30
2023-04-02T03:42:50.897Z,56.30
2023-04-02T03:45:28.185Z,56.30
2023-04-02T03:48:02.673Z,56.20
2023-04-02T03:50:38.364Z,56.30
2023-04-02T03:53:05.562Z,56.30
2023-04-02T03:55:42.653Z,56.30
2023-04-02T03:58:28.183Z,56.30
2023-04-02T04:01:17.400Z,56.30
2023-04-02T04:03:53.394Z,56.30
2023-04-02T04:06:30.276Z,56.30
2023-04-02T04:09:10.600Z,56.30
2023-04-02T04:11:46.431Z,56.30
2023-04-02T04:14:29.829Z,56.30
2023-04-02T04:17:09.288Z,56.30
2023-04-02T04:19:45.422Z,56.30
2023-04-02T04:22:30.377Z,56.20
2023-04-02T04:24:58.959Z,56.20
2023-04-02T04:27:44.777Z,55.70
2023-04-02T04:30:43.457Z,56.20
2023-04-02T04:33:23.094Z,56.30
2023-04-02T04:35:56.567Z,56.20
2023-04-02T04:38:39.038Z,56.30
2023-04-02T04:41:17.185Z,56.20
2023-04-02T04:43:59.734Z,56.10
2023-04-02T04:46:32.801Z,55.70
2023-04-02T04:49:10.960Z,56.20
2023-04-02T04:51:53.478Z,56.20
2023-04-02T04:54:20.355Z,56.10
2023-04-02T04:56:50.159Z,56.10
2023-04-02T04:59:39.681Z,56.20
2023-04-02T05:02:24.381Z,56.30
2023-04-02T05:04:52.865Z,56.10
2023-04-02T05:07:29.855Z,56.10
2023-04-02T05:10:20.357Z,56.20
2023-04-02T05:12:59.044Z,56.20
2023-04-02T05:15:35.915Z,56.30
2023-04-02T05:18:22.974Z,56.20
2023-04-02T05:20:58.579Z,56.20
2023-04-02T05:23:30.975Z,56.30
2023-04-02T05:26:19.078Z,56.20
2023-04-02T05:28:58.248Z,56.20
2023-04-02T05:31:43.287Z,56.30
2023-04-02T05:34:12.512Z,56.30
2023-04-02T05:36:39.854Z,56.20
2023-04-02T05:39:11.184Z,56.20
2023-04-02T05:41:45.741Z,56.80
2023-04-02T05:44:21.643Z,56.20
2023-04-02T05:46:59.138Z,56.20
2023-04-02T05:49:52.062Z,56.20
2023-04-02T05:52:32.249Z,56.30
2023-04-02T05:55:25.678Z,56.80
2023-04-02T05:58:14.175Z,56.20
2023-04-02T06:01:01.429Z,56.30
2023-04-02T06:03:57.134Z,56.20
2023-04-02T06:06:42.486Z,56.30
2023-04-02T06:09:14.683Z,56.30
2023-04-02T06:11:46.242Z,56.30
2023-04-02T06:14:15.216Z,56.30
2023-04-02T06:16:44.701Z,56.40
2023-04-02T06:19:20.049Z,56.40
2023-04-02T06:21:49.799Z,56.40
2023-04-02T06:24:21.016Z,56.40
2023-04-02T06:26:56.262Z,56.40
2023-04-02T06:29:39.781Z,56.40
2023-04-02T06:32:08.408Z,56.40
2023-04-02T06:34:38.520Z,56.40
2023-04-02T06:37:27.902Z,56.50
2023-04-02T06:39:56.190Z,56.60
2023-04-02T06:42:33.624Z,56.50
2023-04-02T06:45:00.630Z,56.40
2023-04-02T06:47:44.255Z,56.40
2023-04-02T06:50:26.859Z,56.70
2023-04-02T06:53:00.112Z,56.70
2023-04-02T06:55:55.066Z,56.70
2023-04-02T06:58:21.970Z,56.80
2023-04-02T07:00:50.022Z,56.80
2023-04-02T07:03:27.152Z,56.80
2023-04-02T07:05:54.571Z,56.80
2023-04-02T07:08:21.597Z,56.80
2023-04-02T07:10:48.329Z,56.80
2023-04-02T07:13:17.028Z,56.80
2023-04-02T07:15:46.858Z,56.80
2023-04-02T07:18:33.469Z,56.80
2023-04-02T07:21:00.212Z,56.80
2023-04-02T07:23:27.094Z,56.80
2023-04-02T07:25:55.179Z,57.00
2023-04-02T07:28:23.078Z,57.00
2023-04-02T07:30:50.856Z,56.90
2023-04-02T07:33:22.763Z,56.90
2023-04-02T07:35:51.231Z,57.00
2023-04-02T07:38:17.875Z,57.00
2023-04-02T07:40:44.453Z,57.00
2023-04-02T07:43:11.297Z,57.20
2023-04-02T07:45:38.277Z,57.00
2023-04-02T07:48:06.889Z,57.00
2023-04-02T07:50:34.026Z,57.10
2023-04-02T07:53:01.112Z,57.20
2023-04-02T07:55:27.740Z,57.10
2023-04-02T07:57:56.578Z,57.30
2023-04-02T08:00:24.814Z,57.40
2023-04-02T08:02:52.540Z,57.30
2023-04-02T08:05:19.286Z,57.40
2023-04-02T08:07:54.373Z,57.40
2023-04-02T08:10:21.333Z,57.50
2023-04-02T08:12:49.420Z,57.50
2023-04-02T08:15:16.251Z,57.50
2023-04-02T08:17:43.307Z,57.10
2023-04-02T08:20:19.288Z,57.60
2023-04-02T08:22:47.290Z,57.60
2023-04-02T08:25:14.209Z,57.10
2023-04-02T08:27:40.998Z,57.50
2023-04-02T08:30:09.052Z,57.60
2023-04-02T08:32:36.051Z,57.70
2023-04-02T08:35:02.844Z,57.10
2023-04-02T08:37:29.489Z,57.70
2023-04-02T08:39:56.127Z,57.80
2023-04-02T08:42:31.680Z,58.40
2023-04-02T08:45:38.006Z,57.80
2023-04-02T08:48:06.343Z,57.80
2023-04-02T08:50:32.965Z,57.90
2023-04-02T08:53:03.511Z,57.70
2023-04-02T08:55:47.733Z,57.90
2023-04-02T08:58:31.812Z,57.90
2023-04-02T09:01:01.875Z,58.10
2023-04-02T09:03:36.632Z,58.70
2023-04-02T09:06:04.590Z,58.10
2023-04-02T09:08:33.045Z,58.80
2023-04-02T09:10:59.702Z,58.10
2023-04-02T09:13:30.215Z,58.30
2023-04-02T09:16:10.687Z,57.70
2023-04-02T09:18:38.872Z,58.20
2023-04-02T09:21:21.145Z,58.30
2023-04-02T09:23:48.143Z,58.20
2023-04-02T09:26:23.454Z,57.80
2023-04-02T09:29:12.201Z,58.20
2023-04-02T09:31:50.925Z,58.40
2023-04-02T09:34:47.161Z,57.80
2023-04-02T09:37:22.726Z,58.10
2023-04-02T09:39:49.373Z,58.20
2023-04-02T09:42:48.331Z,58.50
2023-04-02T09:45:21.258Z,58.50
2023-04-02T09:47:49.322Z,58.40
2023-04-02T09:50:22.045Z,58.40
2023-04-02T09:52:50.058Z,58.60
2023-04-02T09:55:38.737Z,58.40
2023-04-02T09:58:16.628Z,58.50
2023-04-02T10:00:52.178Z,58.50
2023-04-02T10:03:26.602Z,58.50
2023-04-02T10:06:06.654Z,58.50
2023-04-02T10:08:33.488Z,58.50
2023-04-02T10:11:04.054Z,58.50
2023-04-02T10:13:46.163Z,58.40
2023-04-02T10:16:33.499Z,58.50
2023-04-02T10:19:13.260Z,58.40
2023-04-02T10:21:43.033Z,58.50
2023-04-02T10:24:14.843Z,58.40
2023-04-02T10:26:48.546Z,58.30
2023-04-02T10:29:43.800Z,58.50
2023-04-02T10:32:35.307Z,58.50
2023-04-02T10:35:03.826Z,58.60
2023-04-02T10:37:46.030Z,58.70
2023-04-02T10:40:36.003Z,58.50
2023-04-02T10:43:17.725Z,58.70
2023-04-02T10:45:54.334Z,58.70
2023-04-02T10:48:44.211Z,58.60
2023-04-02T10:51:34.244Z,58.80
2023-04-02T10:54:21.321Z,58.70
2023-04-02T10:56:53.044Z,58.80
2023-04-02T10:59:26.986Z,58.70
2023-04-02T11:01:57.517Z,58.80
2023-04-02T11:04:37.602Z,58.70
2023-04-02T11:07:15.035Z,58.30
2023-04-02T11:09:45.529Z,58.70
2023-04-02T11:12:20.238Z,58.70
2023-04-02T11:14:47.459Z,58.60
2023-04-02T11:17:16.414Z,58.80
2023-04-02T11:19:44.160Z,58.60
2023-04-02T11:22:22.376Z,58.60
2023-04-02T11:24:52.286Z,58.50
2023-04-02T11:27:21.910Z,58.40
2023-04-02T11:30:27.424Z,58.50
2023-04-02T11:32:55.034Z,58.60
2023-04-02T11:35:40.793Z,58.50
2023-04-02T11:38:10.337Z,58.70
2023-04-02T11:40:57.345Z,58.70
2023-04-02T11:43:32.764Z,58.70
2023-04-02T11:46:03.261Z,58.70
2023-04-02T11:48:33.718Z,58.70
2023-04-02T11:51:04.613Z,58.70
2023-04-02T11:53:34.400Z,58.70
2023-04-02T11:56:29.676Z,58.80
2023-04-02T11:59:29.990Z,58.90
2023-04-02T12:02:12.717Z,58.70
2023-04-02T12:04:45.624Z,59.30
2023-04-02T12:07:34.890Z,59.40
2023-04-02T12:10:20.280Z,58.90
2023-04-02T12:12:47.341Z,59.30
2023-04-02T12:15:34.206Z,59.40
2023-04-02T12:18:22.439Z,59.50
2023-04-02T12:20:52.328Z,59.50
2023-04-02T12:23:35.240Z,59.60
2023-04-02T12:26:06.484Z,59.70
2023-04-02T12:28:34.464Z,59.60
2023-04-02T12:31:13.827Z,59.80
2023-04-02T12:33:42.391Z,59.70
2023-04-02T12:36:13.990Z,59.80
2023-04-02T12:38:49.777Z,59.80
2023-04-02T12:41:30.006Z,59.80
2023-04-02T12:44:21.678Z,59.80
2023-04-02T12:46:49.966Z,59.70
2023-04-02T12:49:35.252Z,59.80
2023-04-02T12:52:07.465Z,59.70
2023-04-02T12:54:43.456Z,59.60
2023-04-02T12:57:22.843Z,59.00
2023-04-02T12:59:49.657Z,59.60
2023-04-02T13:02:24.880Z,59.50
2023-04-02T13:04:55.098Z,59.50
2023-04-02T13:07:25.661Z,59.50
2023-04-02T13:10:00.744Z,58.00
2023-04-02T13:12:36.016Z,59.50
2023-04-02T13:15:20.663Z,59.50
2023-04-02T13:18:01.563Z,59.50
2023-04-02T13:20:33.494Z,59.50
2023-04-02T13:23:02.615Z,59.90
2023-04-02T13:25:36.015Z,59.40
2023-04-02T13:28:02.941Z,59.50
2023-04-02T13:30:29.713Z,59.80
2023-04-02T13:32:56.518Z,59.80
2023-04-02T13:35:23.285Z,59.80
2023-04-02T13:37:49.973Z,59.80
2023-04-02T13:40:19.065Z,59.90
2023-04-02T13:42:47.523Z,59.90
2023-04-02T13:45:28.853Z,59.90
2023-04-02T13:48:00.729Z,60.00
2023-04-02T13:50:29.464Z,60.10
2023-04-02T13:52:59.035Z,60.20
2023-04-02T13:55:42.048Z,59.70
2023-04-02T13:58:10.596Z,60.20
2023-04-02T14:00:37.838Z,60.30
2023-04-02T14:03:11.751Z,61.00
2023-04-02T14:06:06.879Z,59.70
2023-04-02T14:08:54.683Z,60.50
2023-04-02T14:11:37.094Z,60.40
2023-04-02T14:14:11.166Z,60.40
2023-04-02T14:17:02.381Z,59.90
2023-04-02T14:19:54.463Z,60.60
2023-04-02T14:22:41.343Z,60.50
2023-04-02T14:25:13.664Z,60.50
2023-04-02T14:27:52.027Z,60.60
2023-04-02T14:30:31.292Z,60.70
2023-04-02T14:33:28.262Z,60.80
2023-04-02T14:36:04.357Z,60.90
2023-04-02T14:38:43.028Z,60.10
2023-04-02T14:41:18.327Z,60.60
2023-04-02T14:43:59.452Z,60.50
2023-04-02T14:46:27.616Z,60.50
2023-04-02T14:49:09.063Z,60.40
2023-04-02T14:51:40.565Z,60.40
2023-04-02T14:54:11.083Z,60.50
2023-04-02T14:56:54.361Z,60.30
2023-04-02T14:59:25.427Z,60.20
2023-04-02T15:01:58.719Z,60.20
2023-04-02T15:04:37.042Z,60.10
2023-04-02T15:07:11.481Z,60.10
2023-04-02T15:09:44.754Z,60.20
2023-04-02T15:12:25.322Z,60.40
2023-04-02T15:14:56.838Z,60.30
2023-04-02T15:17:24.640Z,60.40
2023-04-02T15:20:02.022Z,60.40
2023-04-02T15:23:01.102Z,60.40
2023-04-02T15:25:36.393Z,60.30
2023-04-02T15:28:34.254Z,60.30
2023-04-02T15:31:05.944Z,60.40
2023-04-02T15:33:38.505Z,60.50
2023-04-02T15:36:21.395Z,60.60
2023-04-02T15:38:55.607Z,60.70
2023-04-02T15:41:34.525Z,60.70
2023-04-02T15:44:15.286Z,60.80
2023-04-02T15:46:44.683Z,60.90
2023-04-02T15:49:30.395Z,61.00
2023-04-02T15:52:25.622Z,61.10
2023-04-02T15:55:10.538Z,60.90
2023-04-02T15:58:06.441Z,60.80
2023-04-02T16:00:47.689Z,60.90
2023-04-02T16:03:29.313Z,61.40
2023-04-02T16:06:00.835Z,60.80
2023-04-02T16:08:36.176Z,61.50
2023-04-02T16:11:02.771Z,61.60
2023-04-02T16:13:29.396Z,61.60
2023-04-02T16:16:02.174Z,61.70
2023-04-02T16:18:43.221Z,61.60
2023-04-02T16:21:15.776Z,61.70
2023-04-02T16:23:43.047Z,61.60
2023-04-02T16:26:34.820Z,60.70
2023-04-02T16:29:20.157Z,61.50
2023-04-02T16:32:17.903Z,61.20
2023-04-02T16:35:12.951Z,61.20
2023-04-02T16:37:59.524Z,60.50
2023-04-02T16:40:41.517Z,61.20
2023-04-02T16:43:17.141Z,61.10
2023-04-02T16:46:02.577Z,61.00
2023-04-02T16:48:49.530Z,60.90
2023-04-02T16:51:27.953Z,60.90
2023-04-02T16:54:10.564Z,60.90
2023-04-02T16:56:48.019Z,60.10
2023-04-02T16:59:38.709Z,60.70
2023-04-02T17:02:37.208Z,60.70
2023-04-02T17:05:24.847Z,60.60
2023-04-02T17:08:27.872Z,60.50
2023-04-02T17:11:05.358Z,60.40
2023-04-02T17:13:42.655Z,60.50
2023-04-02T17:16:13.102Z,60.60
2023-04-02T17:18:43.259Z,60.50
2023-04-02T17:21:14.544Z,60.50
2023-04-02T17:23:55.942Z,60.30
2023-04-02T17:26:27.419Z,55.90
2023-04-02T17:28:56.383Z,54.90
2023-04-02T17:31:27.138Z,58.10
2023-04-02T17:33:53.789Z,58.20
2023-04-02T17:36:34.780Z,58.50
2023-04-02T17:39:11.248Z,58.50
2023-04-02T17:41:46.064Z,58.50
2023-04-02T17:44:46.586Z,58.70
2023-04-02T17:47:34.910Z,59.10
2023-04-02T17:50:32.698Z,59.30
2023-04-02T17:53:13.182Z,59.60
2023-04-02T17:55:53.564Z,56.50
2023-04-02T17:58:32.104Z,59.70
2023-04-02T18:01:12.042Z,59.70
2023-04-02T18:04:04.348Z,59.80
2023-04-02T18:06:50.104Z,59.80
2023-04-02T18:09:25.822Z,59.90
2023-04-02T18:12:03.885Z,60.00
2023-04-02T18:15:03.457Z,60.00
2023-04-02T18:17:30.239Z,60.00
2023-04-02T18:20:03.422Z,60.20
2023-04-02T18:22:49.556Z,60.20
2023-04-02T18:25:35.361Z,59.70
2023-04-02T18:28:20.185Z,60.30
2023-04-02T18:30:54.884Z,60.30
2023-04-02T18:33:24.232Z,60.50
2023-04-02T18:35:51.007Z,60.20
2023-04-02T18:38:47.023Z,60.20
2023-04-02T18:41:46.001Z,60.40
2023-04-02T18:44:34.245Z,60.30
2023-04-02T18:47:27.980Z,60.30
2023-04-02T18:50:34.261Z,60.30
2023-04-02T18:53:23.931Z,60.20
2023-04-02T18:55:56.204Z,60.20
2023-04-02T18:58:31.405Z,60.20
2023-04-02T19:00:58.602Z,59.70
2023-04-02T19:03:32.426Z,60.20
2023-04-02T19:06:07.352Z,59.60
2023-04-02T19:08:48.434Z,60.20
2023-04-02T19:11:27.371Z,60.10
2023-04-02T19:13:54.739Z,60.00
2023-04-02T19:16:53.362Z,59.60
2023-04-02T19:19:21.647Z,60.00
2023-04-02T19:21:53.808Z,59.90
2023-04-02T19:24:41.302Z,59.90
2023-04-02T19:27:29.682Z,60.00
2023-04-02T19:30:17.635Z,60.00
2023-04-02T19:33:13.715Z,60.00
2023-04-02T19:35:46.617Z,60.00
2023-04-02T19:38:38.894Z,60.00
2023-04-02T19:41:34.666Z,60.00
2023-04-02T19:44:01.475Z,60.00
2023-04-02T19:46:28.661Z,60.10
2023-04-02T19:49:04.522Z,60.10
2023-04-02T19:51:31.233Z,60.10
2023-04-02T19:53:57.888Z,60.10
2023-04-02T19:56:24.581Z,60.00
2023-04-02T19:58:51.174Z,60.10
2023-04-02T20:01:18.014Z,60.10
2023-04-02T20:03:44.748Z,60.10
2023-04-02T20:06:11.930Z,60.10
2023-04-02T20:08:38.697Z,60.10
2023-04-02T20:11:06.245Z,60.00
2023-04-02T20:13:33.224Z,60.00
2023-04-02T20:16:01.326Z,60.00
2023-04-02T20:18:29.351Z,59.90
2023-04-02T20:20:55.968Z,60.00
2023-04-02T20:23:23.496Z,60.70
2023-04-02T20:25:56.267Z,59.90
2023-04-02T20:28:24.610Z,59.90
2023-04-02T20:30:51.855Z,59.90
2023-04-02T20:33:24.076Z,59.80
2023-04-02T20:35:51.767Z,59.80
2023-04-02T20:38:18.762Z,59.70
2023-04-02T20:40:51.936Z,59.80
2023-04-02T20:43:18.587Z,59.70
2023-04-02T20:45:57.881Z,59.70
2023-04-02T20:48:27.228Z,59.60
2023-04-02T20:50:54.335Z,59.60
2023-04-02T20:53:20.974Z,59.60
2023-04-02T20:55:47.571Z,59.60
2023-04-02T20:58:16.174Z,59.50
2023-04-02T21:00:43.513Z,59.50
2023-04-02T21:03:11.130Z,59.50
2023-04-02T21:05:47.908Z,58.90
2023-04-02T21:08:14.834Z,59.50
2023-04-02T21:10:41.417Z,59.40
2023-04-02T21:13:08.057Z,59.40
2023-04-02T21:15:35.009Z,59.40
2023-04-02T21:18:01.938Z,59.40
2023-04-02T21:20:28.677Z,59.40
2023-04-02T21:22:55.289Z,59.30
2023-04-02T21:25:21.929Z,59.20
2023-04-02T21:27:48.530Z,59.20
2023-04-02T21:30:15.435Z,59.20
2023-04-02T21:32:42.090Z,59.20
2023-04-02T21:35:08.993Z,59.20
2023-04-02T21:37:36.017Z,59.20
2023-04-02T21:40:02.668Z,59.20
2023-04-02T21:42:29.420Z,59.20
2023-04-02T21:44:56.050Z,59.20
2023-04-02T21:47:23.659Z,58.60
2023-04-02T21:49:50.567Z,59.10
2023-04-02T21:52:17.155Z,59.10
2023-04-02T21:54:43.752Z,59.10
2023-04-02T21:57:10.338Z,59.10
2023-04-02T21:59:36.952Z,59.10
2023-04-02T22:02:04.676Z,59.00
2023-04-02T22:04:33.165Z,59.00
2023-04-02T22:06:59.825Z,58.60
2023-04-02T22:09:26.849Z,59.00
2023-04-02T22:11:56.636Z,58.90
2023-04-02T22:14:24.146Z,59.00
2023-04-02T22:16:51.822Z,58.90
2023-04-02T22:19:18.704Z,58.80
2023-04-02T22:21:46.158Z,58.90
2023-04-02T22:24:14.762Z,58.90
2023-04-02T22:26:41.783Z,58.90
2023-04-02T22:29:08.645Z,58.80
2023-04-02T22:31:35.618Z,58.70
2023-04-02T22:34:03.838Z,58.70
2023-04-02T22:36:31.222Z,58.70
2023-04-02T22:38:58.854Z,58.70
2023-04-02T22:41:31.871Z,58.70
2023-04-02T22:44:00.770Z,58.60
2023-04-02T22:46:28.628Z,58.70
2023-04-02T22:48:55.704Z,58.60
2023-04-02T22:51:23.342Z,58.50
2023-04-02T22:53:52.515Z,58.40
2023-04-02T22:56:22.008Z,58.40
2023-04-02T22:58:49.135Z,58.30
2023-04-02T23:01:32.349Z,58.30
2023-04-02T23:03:59.082Z,58.30
2023-04-02T23:06:26.535Z,58.30
2023-04-02T23:08:53.475Z,58.30
2023-04-02T23:11:23.315Z,58.30
2023-04-02T23:13:52.253Z,58.20
2023-04-02T23:16:19.604Z,58.30
2023-04-02T23:18:48.269Z,58.20
2023-04-02T23:21:16.786Z,58.20
2023-04-02T23:23:44.331Z,58.20
2023-04-02T23:26:17.402Z,58.10
2023-04-02T23:28:44.798Z,58.20
2023-04-02T23:31:14.521Z,58.20
2023-04-02T23:33:41.468Z,58.10
2023-04-02T23:36:14.906Z,58.20
2023-04-02T23:38:41.654Z,58.10
2023-04-02T23:41:11.768Z,58.20
2023-04-02T23:43:40.356Z,58.10
2023-04-02T23:46:06.993Z,57.60
2023-04-02T23:48:33.603Z,58.20
2023-04-02T23:51:00.334Z,58.10
2023-04-02T23:53:26.989Z,58.10
2023-04-02T23:55:53.587Z,58.20
2023-04-02T23:58:20.206Z,58.10
